Deep Creek, Idaho
Current Conditions -  °F | °C
As of 3:53 AM on Wednesday 26 Nov 2014 (Local Time) from KJER Reporting Station
Clear Clear  
Wind Chill: 33°   Ceiling: Unl
Heat Index: 41°   Visibility: 10mi
Dew Point: 33°   Wind: 14mph
Humidity: 73%   Direction: 220°SW
Pressure: 30.3"   Gusts: NA
Location:  42.6472°N, 114.901°W
Report Text: KJER 261053Z AUTO 22012KT 10SM CLR 05/01 A3030 RMK AO2 SLP259 T00500006
Loading
Personal Weather Stations






























Interactive Weather Map New forecast layout! Learn more

10-Day Weather Forecast

Advertisements
Track Severe Weather on mobile